X  Schließen METAR Luftfahrt Wetterdaten     EHAM Amsterdam Airport Schiphol
Temperatur
5°C Temperatur
4°C Taupunkt
93% Feuchtigkeit



Wind
8 KM/S
5 MPS
2 M/S
4 KTS



360°
N
Aktuelle Wetterlage

Teilweise bewölkt Teilweise bewölkt
Luftdruck 1020.92 (hPa) - 30.15 (inHg)
Sichtweite 6.2 (Meile) - 10 (Km)
Flughafen
Flughafen Code EHAM

Position : Amsterdam Airport Schiphol
Entfernung: 26 (Km)

Metar:
EHAM 060225Z 36004KT 9999 FEW016 BKN046 05/04 Q1021 NOSIG

Zeit: 06-12-2022 03:25 CET